Time;durP1;ratioP1;P1;durP2;ratioP2;P2;SDS_P1;SDS_P2;PMS_P1;PMS_P2;Temp;Humidity;BMP_temperature;BMP_pressure;BME280_temperature;BME280_humidity;BME280_pressure;Samples;Min_cycle;Max_cycle;Signal;HPM_P1;HPM_P2
2021/12/09 00:01:07;;;;;;;56.57;25.33;;;;;;;-3.38;100.00;60450.72;5091831;28;20904;-78
2021/12/09 00:03:41;;;;;;;61.87;26.33;;;;;;;-3.63;100.00;60424.34;5093268;28;20774;-78
2021/12/09 00:06:11;;;;;;;55.97;26.57;;;;;;;-3.61;100.00;60431.97;5092872;28;20927;-76
2021/12/09 00:08:41;;;;;;;56.40;25.93;;;;;;;-5.47;100.00;60236.44;5092380;28;20833;-76
2021/12/09 00:11:10;;;;;;;56.08;25.65;;;;;;;-3.44;100.00;60449.91;5092688;28;20472;-75
2021/12/09 00:13:37;;;;;;;90.05;37.20;;;;;;;-4.42;100.00;60342.09;5092364;28;20199;-76
2021/12/09 00:16:07;;;;;;;83.13;36.13;;;;;;;-3.21;100.00;60473.66;5092846;28;20289;-75
2021/12/09 00:18:38;;;;;;;66.30;30.88;;;;;;;-3.13;100.00;60474.63;5092519;28;20219;-78
2021/12/09 00:21:05;;;;;;;54.63;26.73;;;;;;;-4.12;100.00;60383.13;5092113;28;20654;-75
2021/12/09 00:23:33;;;;;;;61.43;26.70;;;;;;;-4.18;100.00;60371.31;5092184;28;20269;-76
2021/12/09 00:26:00;;;;;;;49.50;24.43;;;;;;;-4.15;100.00;60381.94;5092039;28;20445;-75
2021/12/09 00:28:33;;;;;;;53.30;25.17;;;;;;;-2.79;100.00;60514.97;5092389;28;20547;-77
2021/12/09 00:31:01;;;;;;;57.13;27.33;;;;;;;-4.06;100.00;60379.00;5092243;28;20534;-77
2021/12/09 00:33:30;;;;;;;48.92;23.30;;;;;;;-3.00;100.00;60492.81;5091766;28;20959;-75
2021/12/09 00:35:59;;;;;;;52.28;25.02;;;;;;;-3.10;100.00;60482.78;5091666;28;20207;-76
2021/12/09 00:38:36;;;;;;;47.80;22.23;;;;;;;-3.88;100.00;60397.97;5091134;28;20582;-75
2021/12/09 00:41:08;;;;;;;53.63;25.73;;;;;;;-4.21;100.00;60358.19;5092957;28;20471;-76
2021/12/09 00:43:36;;;;;;;59.20;27.27;;;;;;;-2.98;100.00;60497.41;5092794;28;20566;-76
2021/12/09 00:46:04;;;;;;;62.95;26.92;;;;;;;-3.04;100.00;60491.59;5092218;28;20442;-76
2021/12/09 00:48:36;;;;;;;62.20;28.47;;;;;;;-3.11;100.00;60484.22;5091424;28;20207;-78
2021/12/09 00:51:05;;;;;;;66.50;30.33;;;;;;;-3.31;100.00;60463.09;5092207;28;20503;-77
2021/12/09 00:53:33;;;;;;;66.77;28.33;;;;;;;-5.00;100.00;60280.97;5092015;28;20643;-76
2021/12/09 00:56:06;;;;;;;74.83;32.30;;;;;;;-3.27;100.00;60459.84;5091730;28;20454;-78
2021/12/09 00:58:33;;;;;;;65.53;30.37;;;;;;;-3.20;100.00;60471.69;5091705;28;20578;-77
2021/12/09 01:01:02;;;;;;;69.70;32.87;;;;;;;-4.34;100.00;60350.53;5091484;28;20520;-75
2021/12/09 01:03:30;;;;;;;63.50;30.00;;;;;;;-3.11;100.00;60479.22;5092337;28;20817;-78
2021/12/09 01:06:00;;;;;;;60.47;28.97;;;;;;;-3.21;100.00;60468.66;5091770;28;20442;-80
2021/12/09 01:08:28;;;;;;;67.17;28.37;;;;;;;-3.48;100.00;60442.66;5092495;28;20437;-75
2021/12/09 01:10:56;;;;;;;71.00;29.50;;;;;;;-3.36;100.00;60457.81;5091717;28;20959;-75
2021/12/09 01:13:25;;;;;;;55.35;27.65;;;;;;;-3.30;100.00;60458.66;5091773;28;20503;-76
2021/12/09 01:15:55;;;;;;;61.33;27.97;;;;;;;-4.42;100.00;60347.06;5091342;28;20301;-76
2021/12/09 01:18:22;;;;;;;60.93;26.20;;;;;;;-3.29;100.00;60460.22;5091148;28;20488;-78
2021/12/09 01:20:50;;;;;;;58.90;26.40;;;;;;;-4.97;100.00;60281.13;5091596;28;20526;-77
2021/12/09 01:23:21;;;;;;;64.03;27.43;;;;;;;-3.44;100.00;60441.91;5091440;28;20200;-78
2021/12/09 01:25:51;;;;;;;60.13;25.80;;;;;;;-3.22;100.00;60467.63;5091358;28;20529;-77
2021/12/09 01:28:24;;;;;;;63.73;27.77;;;;;;;-3.23;100.00;60466.03;5091180;28;20202;-76
2021/12/09 01:31:03;;;;;;;61.87;26.07;;;;;;;-3.14;100.00;60476.06;5090187;28;20527;-76
2021/12/09 01:33:30;;;;;;;55.93;25.90;;;;;;;-3.11;100.00;60474.25;5091418;28;20525;-75
2021/12/09 01:36:01;;;;;;;54.88;25.70;;;;;;;-4.62;100.00;60330.41;5095693;28;20472;-76
2021/12/09 01:38:33;;;;;;;53.50;23.97;;;;;;;-3.18;100.00;60471.84;5091799;28;20694;-75
2021/12/09 01:41:01;;;;;;;50.00;25.30;;;;;;;-3.25;100.00;60468.91;5092678;28;20457;-76
2021/12/09 01:43:33;;;;;;;67.13;27.23;;;;;;;-4.30;100.00;60352.25;5091072;28;20782;-77
2021/12/09 01:46:06;;;;;;;55.57;25.77;;;;;;;-3.08;100.00;60482.41;5090102;28;20466;-75
2021/12/09 01:48:38;;;;;;;55.17;26.03;;;;;;;-3.66;100.00;60426.69;5090685;28;20442;-78
2021/12/09 01:51:16;;;;;;;67.47;29.73;;;;;;;-3.32;100.00;60456.53;5091275;28;20434;-76
2021/12/09 01:53:50;;;;;;;59.50;28.43;;;;;;;-3.06;100.00;60487.00;5091139;28;20233;-77
2021/12/09 01:56:21;;;;;;;59.57;28.60;;;;;;;-3.43;100.00;60445.44;5091446;28;20444;-77
2021/12/09 01:58:50;;;;;;;67.30;30.47;;;;;;;-3.74;100.00;60410.25;5091087;28;20572;-77
2021/12/09 02:01:26;;;;;;;74.53;30.30;;;;;;;-3.04;100.00;60486.09;5090839;28;20944;-77
2021/12/09 02:03:55;;;;;;;65.93;29.97;;;;;;;-3.12;100.00;60478.19;5091045;28;20449;-76
2021/12/09 02:06:25;;;;;;;67.30;29.67;;;;;;;-3.24;100.00;60470.50;5091008;28;20828;-76
2021/12/09 02:08:56;;;;;;;64.20;29.85;;;;;;;-3.49;100.00;60439.13;5090730;28;20457;-77
2021/12/09 02:11:24;;;;;;;73.23;31.10;;;;;;;-3.56;100.00;60431.75;5091186;28;20200;-76
2021/12/09 02:13:56;;;;;;;66.97;29.40;;;;;;;-3.24;100.00;60464.97;5090575;28;20453;-76
2021/12/09 02:16:25;;;;;;;68.50;29.40;;;;;;;-4.61;100.00;60322.06;5090007;28;20512;-77
2021/12/09 02:18:57;;;;;;;62.10;29.50;;;;;;;-3.23;100.00;60466.56;5090797;28;20517;-76
2021/12/09 02:21:29;;;;;;;66.88;30.45;;;;;;;-3.25;100.00;60464.44;5090361;28;20992;-77
2021/12/09 02:23:59;;;;;;;70.40;29.23;;;;;;;-3.05;100.00;60485.56;5091151;28;20196;-76
2021/12/09 02:26:29;;;;;;;64.10;28.40;;;;;;;-3.13;100.00;60476.59;5090771;28;20200;-76
2021/12/09 02:28:57;;;;;;;61.57;28.10;;;;;;;-4.86;100.00;60295.72;5090878;28;20943;-78
2021/12/09 02:31:29;;;;;;;62.13;28.50;;;;;;;-3.48;100.00;60435.19;5091217;28;20555;-75
2021/12/09 02:34:01;;;;;;;56.17;27.00;;;;;;;-4.56;100.00;60329.81;5091254;28;20452;-76
2021/12/09 02:36:37;;;;;;;62.43;26.53;;;;;;;-3.65;100.00;60422.75;5090697;28;20203;-78
2021/12/09 02:39:08;;;;;;;61.88;26.90;;;;;;;-3.58;100.00;60432.13;5090862;28;20485;-77
2021/12/09 02:41:36;;;;;;;54.90;25.67;;;;;;;-3.56;100.00;60431.75;5091095;28;20617;-75
2021/12/09 02:44:07;;;;;;;54.83;25.80;;;;;;;-4.89;100.00;60295.03;5090667;28;20196;-76
2021/12/09 02:46:45;;;;;;;57.45;26.27;;;;;;;-5.05;100.00;60275.19;5091247;28;20202;-77
2021/12/09 02:49:20;;;;;;;62.53;26.92;;;;;;;-3.44;100.00;60444.41;5089199;28;20199;-76
2021/12/09 02:51:51;;;;;;;66.83;28.67;;;;;;;-3.43;100.00;60445.44;5090785;28;20203;-75
2021/12/09 02:54:21;;;;;;;71.13;28.53;;;;;;;-3.63;100.00;60424.34;5090554;28;20422;-76
2021/12/09 02:56:51;;;;;;;73.30;29.60;;;;;;;-5.10;100.00;60290.28;5090858;28;20549;-77
2021/12/09 02:59:19;;;;;;;77.10;29.50;;;;;;;-3.49;100.00;60441.59;5093494;28;20486;-77
2021/12/09 03:01:56;;;;;;;64.43;27.93;;;;;;;-3.56;100.00;60431.75;5094597;28;20287;-76
2021/12/09 03:04:25;;;;;;;64.17;27.60;;;;;;;-4.55;100.00;60327.84;5094395;28;20449;-75
2021/12/09 03:06:55;;;;;;;63.37;28.63;;;;;;;-3.28;100.00;60461.28;5093989;28;20515;-78
2021/12/09 03:09:27;;;;;;;61.47;25.87;;;;;;;-3.39;100.00;60452.16;5094778;28;20460;-76
2021/12/09 03:11:55;;;;;;;57.37;26.33;;;;;;;-4.72;100.00;60304.97;5094382;28;20498;-75
2021/12/09 03:14:24;;;;;;;66.23;27.40;;;;;;;-3.43;100.00;60445.44;5093986;28;21149;-76
2021/12/09 03:16:52;;;;;;;65.17;28.37;;;;;;;-3.96;100.00;60392.53;5094438;28;20514;-78
2021/12/09 03:19:20;;;;;;;67.33;27.30;;;;;;;-3.14;100.00;60476.06;5094073;28;20481;-76
2021/12/09 03:21:48;;;;;;;63.67;28.23;;;;;;;-3.82;100.00;60394.34;5094610;28;20433;-78
2021/12/09 03:24:21;;;;;;;59.13;27.20;;;;;;;-3.24;100.00;60465.50;5094860;28;20257;-76
2021/12/09 03:26:51;;;;;;;69.13;28.53;;;;;;;-3.14;100.00;60481.06;5094500;28;20859;-73
2021/12/09 03:29:20;;;;;;;62.53;28.17;;;;;;;-3.10;100.00;60480.28;5093855;28;20841;-75
2021/12/09 03:31:50;;;;;;;65.68;26.35;;;;;;;-3.27;100.00;60462.34;5094253;28;21023;-77
2021/12/09 03:34:20;;;;;;;65.80;28.57;;;;;;;-3.79;100.00;60414.94;5094530;28;20192;-76
2021/12/09 03:36:49;;;;;;;65.60;26.60;;;;;;;-3.34;100.00;60454.97;5093810;28;20477;-77
2021/12/09 03:39:22;;;;;;;63.33;27.40;;;;;;;-3.96;100.00;60390.06;5093058;28;20540;-76
2021/12/09 03:41:52;;;;;;;68.65;28.88;;;;;;;-3.23;100.00;60466.03;5093449;28;20936;-78
2021/12/09 03:44:20;;;;;;;69.27;29.93;;;;;;;-3.88;100.00;60400.47;5093330;28;20191;-77
2021/12/09 03:46:50;;;;;;;69.95;29.38;;;;;;;-3.05;100.00;60490.53;5095031;28;20441;-75
2021/12/09 03:49:17;;;;;;;68.83;30.37;;;;;;;-4.44;100.00;60339.97;5093672;28;20629;-76
2021/12/09 03:51:45;;;;;;;75.57;32.95;;;;;;;-4.18;100.00;60369.34;5091908;28;20952;-74
2021/12/09 03:54:16;;;;;;;77.37;31.90;;;;;;;-2.67;100.00;60525.69;5093437;28;20202;-77
2021/12/09 03:56:47;;;;;;;66.97;28.40;;;;;;;-2.93;100.00;60503.22;5092913;28;20972;-75
2021/12/09 03:59:14;;;;;;;64.30;28.47;;;;;;;-2.86;100.00;60505.09;5092704;28;20945;-76
2021/12/09 04:01:43;;;;;;;68.60;29.70;;;;;;;-2.74;100.00;60518.31;5092487;28;20511;-76
2021/12/09 04:04:11;;;;;;;58.20;26.67;;;;;;;-2.77;100.00;60510.16;5093078;28;20434;-77
2021/12/09 04:06:40;;;;;;;66.03;29.63;;;;;;;-2.74;100.00;60520.78;5092722;28;20446;-75
2021/12/09 04:09:11;;;;;;;59.43;27.20;;;;;;;-2.68;100.00;60524.63;5091430;28;20974;-77
2021/12/09 04:11:42;;;;;;;70.97;28.13;;;;;;;-3.20;100.00;60469.19;5092093;28;20438;-76
2021/12/09 04:14:12;;;;;;;66.33;29.00;;;;;;;-2.84;100.00;60512.19;5092589;28;20429;-78
2021/12/09 04:16:47;;;;;;;69.53;29.87;;;;;;;-2.46;100.00;60544.31;5092618;28;20426;-75
2021/12/09 04:19:19;;;;;;;64.40;31.40;;;;;;;-2.40;100.00;60555.66;5092769;28;20542;-76
2021/12/09 04:21:49;;;;;;;68.77;31.23;;;;;;;-3.58;100.00;60424.66;5092709;28;20430;-77
2021/12/09 04:24:18;;;;;;;69.70;30.70;;;;;;;-2.39;100.00;60554.22;5092679;28;20944;-77
2021/12/09 04:26:49;;;;;;;72.63;32.10;;;;;;;-2.36;100.00;60552.38;5092597;28;20453;-74
2021/12/09 04:29:19;;;;;;;75.83;32.03;;;;;;;-2.48;100.00;60544.69;5092494;28;20430;-75
2021/12/09 04:31:49;;;;;;;73.27;32.27;;;;;;;-3.91;100.00;60397.81;5092250;28;20458;-76
2021/12/09 04:34:18;;;;;;;75.60;32.57;;;;;;;-3.33;100.00;60460.97;5092998;28;20799;-75
2021/12/09 04:36:46;;;;;;;78.87;32.00;;;;;;;-2.57;100.00;60543.72;5094650;28;20434;-75
2021/12/09 04:39:13;;;;;;;83.63;34.07;;;;;;;-2.59;100.00;60534.13;5092483;28;20513;-77
2021/12/09 04:41:41;;;;;;;74.63;31.87;;;;;;;-3.93;100.00;60392.69;5092487;28;20430;-75
2021/12/09 04:44:11;;;;;;;78.10;34.10;;;;;;;-2.51;100.00;60536.56;5092786;28;20438;-77
2021/12/09 04:46:42;;;;;;;85.87;33.87;;;;;;;-2.60;100.00;60533.09;5092982;28;20449;-77
2021/12/09 04:49:10;;;;;;;78.73;34.30;;;;;;;-3.22;100.00;60470.13;5092670;28;20456;-75
2021/12/09 04:51:37;;;;;;;77.57;34.63;;;;;;;-2.44;100.00;60549.47;5091853;28;20449;-77
2021/12/09 04:54:08;;;;;;;77.43;34.33;;;;;;;-2.34;100.00;60559.50;5091616;28;20487;-76
2021/12/09 04:56:38;;;;;;;74.57;32.93;;;;;;;-2.31;100.00;60563.19;5092025;28;21037;-76
2021/12/09 04:59:08;;;;;;;76.32;32.85;;;;;;;-2.64;100.00;60528.88;5092217;28;20517;-74
2021/12/09 05:01:36;;;;;;;84.80;34.33;;;;;;;-2.44;100.00;60554.44;5091450;28;20270;-75
2021/12/09 05:04:05;;;;;;;78.50;33.67;;;;;;;-2.34;100.00;60561.97;5090471;28;20229;-76
2021/12/09 05:06:32;;;;;;;83.33;33.97;;;;;;;-2.80;100.00;60506.97;5091690;28;20437;-75
2021/12/09 05:09:10;;;;;;;74.23;32.87;;;;;;;-2.50;100.00;60542.59;5091956;28;20433;-76
2021/12/09 05:11:50;;;;;;;79.17;32.70;;;;;;;-3.23;100.00;60459.09;5091561;28;20591;-77
2021/12/09 05:14:19;;;;;;;76.45;33.15;;;;;;;-3.88;100.00;60403.47;5092017;28;20460;-76
2021/12/09 05:16:49;;;;;;;85.33;34.10;;;;;;;-3.17;100.00;60472.88;5091804;28;20196;-77
2021/12/09 05:19:18;;;;;;;82.17;35.17;;;;;;;-3.07;100.00;60488.44;5091200;28;20470;-76
2021/12/09 05:21:52;;;;;;;79.28;33.10;;;;;;;-2.89;100.00;60507.44;5091552;28;20495;-77
2021/12/09 05:24:21;;;;;;;101.70;39.80;;;;;;;-3.09;100.00;60481.34;5091442;28;20199;-75
2021/12/09 05:26:52;;;;;;;96.97;38.30;;;;;;;-3.39;100.00;60454.13;5091320;28;20880;-76
2021/12/09 05:32:20;;;;;;;83.07;35.33;;;;;;;-2.93;100.00;60498.22;5091336;28;20476;-78
2021/12/09 05:34:51;;;;;;;73.20;33.13;;;;;;;-2.93;100.00;60498.22;5091376;28;20898;-77
2021/12/09 05:37:20;;;;;;;79.32;35.70;;;;;;;-2.91;100.00;60502.28;5091344;28;20441;-79
2021/12/09 05:39:50;;;;;;;77.00;34.13;;;;;;;-2.78;100.00;60513.53;5090781;28;20227;-75
2021/12/09 05:42:19;;;;;;;71.28;31.33;;;;;;;-2.89;100.00;60504.94;5091064;28;20555;-76
2021/12/09 05:44:47;;;;;;;67.23;31.63;;;;;;;-3.05;100.00;60485.56;5091382;28;20260;-77
2021/12/09 05:47:16;;;;;;;78.40;33.53;;;;;;;-2.85;100.00;60508.63;5090952;28;20441;-78
2021/12/09 05:49:47;;;;;;;85.07;34.70;;;;;;;-2.82;100.00;60507.38;5090942;28;20437;-75
2021/12/09 05:52:17;;;;;;;79.27;34.67;;;;;;;-3.12;100.00;60475.16;5091001;28;20997;-76
2021/12/09 05:54:44;;;;;;;77.20;32.73;;;;;;;-4.18;100.00;60366.34;5089432;28;20434;-77
2021/12/09 05:57:12;;;;;;;77.33;33.50;;;;;;;-3.13;100.00;60479.59;5093527;28;20441;-79
2021/12/09 05:59:41;;;;;;;77.37;32.80;;;;;;;-2.82;100.00;60514.84;5095307;28;20485;-74
2021/12/09 06:02:09;;;;;;;46.07;20.93;;;;;;;-3.12;100.00;60483.16;5091334;28;20446;-76
2021/12/09 06:04:36;;;;;;;65.60;28.83;;;;;;;-3.52;100.00;60435.97;5091730;28;20499;-77
2021/12/09 06:07:05;;;;;;;67.40;31.55;;;;;;;-3.34;100.00;60454.97;5091541;28;20826;-77
2021/12/09 06:09:34;;;;;;;105.57;43.45;;;;;;;-3.32;100.00;60454.03;5089638;28;20639;-78
2021/12/09 06:12:01;;;;;;;79.28;35.90;;;;;;;-3.38;100.00;60450.72;5091021;28;20252;-76
2021/12/09 06:14:29;;;;;;;61.30;28.58;;;;;;;-3.41;100.00;60452.53;5090435;28;20296;-76
2021/12/09 06:16:58;;;;;;;74.40;33.03;;;;;;;-3.14;100.00;60476.06;5090782;28;20200;-76
2021/12/09 06:19:27;;;;;;;60.50;27.52;;;;;;;-3.13;100.00;60479.59;5090925;28;20480;-79
2021/12/09 06:21:54;;;;;;;70.60;30.30;;;;;;;-3.57;100.00;60430.69;5090682;28;20741;-78
2021/12/09 06:24:23;;;;;;;67.63;30.75;;;;;;;-4.96;100.00;60285.19;5090847;28;20199;-76
2021/12/09 06:26:53;;;;;;;74.10;31.47;;;;;;;-4.57;100.00;60328.78;5090603;28;20196;-75
2021/12/09 06:29:20;;;;;;;88.28;38.85;;;;;;;-3.84;100.00;60397.75;5089456;28;20466;-79
2021/12/09 06:31:48;;;;;;;73.03;32.33;;;;;;;-3.49;100.00;60439.13;5090471;28;20219;-75
2021/12/09 06:34:16;;;;;;;72.85;32.30;;;;;;;-3.50;100.00;60443.06;5093014;28;20203;-77
2021/12/09 06:36:44;;;;;;;77.80;34.55;;;;;;;-3.40;100.00;60453.59;5094986;28;20319;-74
2021/12/09 06:39:12;;;;;;;79.30;31.33;;;;;;;-3.38;100.00;60450.72;5094210;28;20238;-75
2021/12/09 06:41:40;;;;;;;80.45;32.47;;;;;;;-3.19;100.00;60475.22;5094311;28;20191;-76
2021/12/09 06:44:09;;;;;;;94.22;35.97;;;;;;;-3.24;100.00;60465.50;5094435;28;20203;-78
2021/12/09 06:46:36;;;;;;;61.17;25.10;;;;;;;-3.05;100.00;60488.06;5094446;28;20287;-75
2021/12/09 06:49:03;;;;;;;58.40;25.23;;;;;;;-3.18;100.00;60471.31;5095001;28;20466;-76
2021/12/09 06:51:30;;;;;;;63.33;25.55;;;;;;;-3.46;100.00;60447.78;5094688;28;20510;-76
2021/12/09 06:53:58;;;;;;;71.77;28.27;;;;;;;-2.82;100.00;60509.84;5094523;28;20253;-76
2021/12/09 06:56:27;;;;;;;67.27;28.67;;;;;;;-3.05;100.00;60473.09;5094355;28;20805;-77
2021/12/09 06:58:55;;;;;;;79.17;29.37;;;;;;;-4.01;100.00;60384.25;5094107;28;20481;-76
2021/12/09 07:01:26;;;;;;;85.38;32.70;;;;;;;-2.62;100.00;60530.97;5094225;28;20437;-74
2021/12/09 07:03:53;;;;;;;78.47;31.50;;;;;;;-3.74;100.00;60412.75;5093886;28;20196;-76
2021/12/09 07:06:21;;;;;;;91.70;36.53;;;;;;;-2.40;100.00;60553.69;5094239;28;20494;-77
2021/12/09 07:08:52;;;;;;;85.43;34.40;;;;;;;-2.71;100.00;60523.97;5094073;28;20453;-75
2021/12/09 07:11:21;;;;;;;95.63;36.93;;;;;;;-2.34;100.00;60560.03;5094219;28;20488;-76
2021/12/09 07:13:49;;;;;;;86.10;34.90;;;;;;;-2.34;100.00;60557.00;5093561;28;20952;-78
2021/12/09 07:16:20;;;;;;;99.93;38.30;;;;;;;-2.23;100.00;60576.13;5094206;28;20580;-76
2021/12/09 07:18:48;;;;;;;88.07;35.97;;;;;;;-2.18;100.00;60571.41;5093438;28;20723;-75
2021/12/09 07:21:15;;;;;;;96.93;36.07;;;;;;;-1.92;100.00;60603.88;5093672;28;20933;-75
2021/12/09 07:23:45;;;;;;;80.90;32.57;;;;;;;-2.04;100.00;60593.69;5093469;28;20872;-77
2021/12/09 07:26:14;;;;;;;87.33;33.17;;;;;;;-2.36;100.00;60559.88;5093011;28;20511;-76
2021/12/09 07:28:41;;;;;;;97.23;38.77;;;;;;;-1.58;100.00;60639.28;5093806;28;20438;-76
2021/12/09 07:31:09;;;;;;;115.90;46.17;;;;;;;-1.56;100.00;60646.94;5093935;28;20531;-76
2021/12/09 07:33:36;;;;;;;121.33;47.53;;;;;;;-1.90;100.00;60606.00;5093546;28;20859;-78
2021/12/09 07:36:05;;;;;;;140.33;51.23;;;;;;;-1.94;100.00;60601.75;5093717;28;20433;-76
2021/12/09 07:38:35;;;;;;;114.37;48.77;;;;;;;-1.50;100.00;60647.75;5093643;28;20438;-75
2021/12/09 07:41:04;;;;;;;87.23;37.67;;;;;;;-1.48;100.00;60650.41;5093886;28;20426;-77
2021/12/09 07:43:33;;;;;;;94.77;36.67;;;;;;;-1.23;100.00;60676.84;5093433;28;20937;-78
2021/12/09 07:46:02;;;;;;;84.00;22.93;;;;;;;-1.02;100.00;60701.56;5092461;28;20450;-79
2021/12/09 07:48:31;;;;;;;78.20;23.33;;;;;;;-0.87;100.00;60717.44;5093891;28;20974;-78
2021/12/09 07:53:49;;;;;;;56.60;24.17;;;;;;;-1.02;100.00;60701.03;5093397;28;20438;-76
2021/12/09 07:56:17;;;;;;;62.43;24.43;;;;;;;-0.91;100.00;60710.72;5094077;27;20450;-75
2021/12/09 07:58:44;;;;;;;66.53;26.43;;;;;;;-0.98;100.00;60703.31;5095180;28;20818;-77
2021/12/09 08:01:12;;;;;;;87.33;31.97;;;;;;;-1.02;100.00;60701.56;5093213;27;20449;-78
2021/12/09 08:03:49;;;;;;;82.87;33.50;;;;;;;-0.81;100.00;60720.22;5094835;28;20528;-76
2021/12/09 08:06:16;;;;;;;84.83;30.77;;;;;;;-0.70;100.00;60736.88;5098743;28;20939;-77
2021/12/09 08:08:43;;;;;;;71.50;25.57;;;;;;;-0.69;100.00;60733.47;5092088;28;20496;-77
2021/12/09 08:11:14;;;;;;;83.17;29.77;;;;;;;-0.67;100.00;60735.06;5092574;28;20457;-76
2021/12/09 08:13:41;;;;;;;75.03;27.67;;;;;;;-0.77;100.00;60725.00;5093074;28;20842;-76
2021/12/09 08:16:09;;;;;;;69.43;28.50;;;;;;;-0.86;100.00;60713.50;5092360;28;20595;-79
2021/12/09 08:18:53;;;;;;;81.87;25.87;;;;;;;-0.67;100.00;60730.06;5092787;28;20450;-77
2021/12/09 08:21:21;;;;;;;68.93;24.90;;;;;;;-0.42;100.00;60764.03;5093400;28;20430;-76
2021/12/09 08:23:48;;;;;;;70.67;25.43;;;;;;;-0.61;100.00;60741.41;5092717;28;20433;-76
2021/12/09 08:26:18;;;;;;;66.97;20.87;;;;;;;-0.91;100.00;60715.72;5092393;28;20430;-74
2021/12/09 08:28:45;;;;;;;72.83;17.03;;;;;;;-0.80;100.00;60716.31;5093131;28;20438;-76
2021/12/09 08:31:12;;;;;;;50.27;19.30;;;;;;;-0.87;100.00;60714.41;5092359;28;20457;-76
2021/12/09 08:33:41;;;;;;;56.37;22.77;;;;;;;-0.37;100.00;60766.81;5092356;28;20846;-77
2021/12/09 08:36:09;;;;;;;65.57;25.73;;;;;;;-0.26;100.00;60778.47;5092443;28;20428;-76
2021/12/09 08:38:38;;;;;;;71.33;28.77;;;;;;;-0.44;100.00;60761.91;5091186;28;20465;-78
2021/12/09 08:41:07;;;;;;;77.60;30.43;;;;;;;-0.09;100.00;60799.50;5090843;28;20481;-78
2021/12/09 08:43:38;;;;;;;94.17;34.60;;;;;;;0.02;100.00;60808.13;5092286;28;20438;-75
2021/12/09 08:46:06;;;;;;;77.10;30.10;;;;;;;0.15;100.00;60821.34;5092005;28;20765;-77
2021/12/09 08:48:36;;;;;;;70.93;28.00;;;;;;;0.38;100.00;60845.75;5092428;28;20487;-77
2021/12/09 08:51:03;;;;;;;79.20;30.37;;;;;;;0.47;100.00;60855.81;5092142;28;20503;-79
2021/12/09 08:53:31;;;;;;;67.87;29.10;;;;;;;0.38;100.00;60846.28;5092049;28;20450;-78
2021/12/09 08:55:59;;;;;;;74.10;30.57;;;;;;;0.10;100.00;60816.59;5091229;28;20459;-76
2021/12/09 08:58:30;;;;;;;81.80;30.73;;;;;;;-0.33;100.00;60771.06;5091935;28;20513;-75
2021/12/09 09:01:00;;;;;;;77.00;32.37;;;;;;;-0.06;100.00;60800.16;5091801;28;21041;-78
2021/12/09 09:03:29;;;;;;;91.63;36.77;;;;;;;0.25;100.00;60831.94;5092211;28;20529;-78
2021/12/09 09:05:56;;;;;;;81.67;34.90;;;;;;;0.04;100.00;60810.25;5091651;28;20438;-77
2021/12/09 09:08:26;;;;;;;85.00;33.93;;;;;;;0.73;100.00;60883.38;5091323;28;20454;-76
2021/12/09 09:10:53;;;;;;;94.77;39.93;;;;;;;-0.13;100.00;60792.22;5091701;28;20465;-76
2021/12/09 09:13:23;;;;;;;78.13;36.50;;;;;;;-0.45;100.00;60758.34;5091483;28;20522;-77
2021/12/09 09:15:53;;;;;;;80.67;37.03;;;;;;;-0.17;100.00;60793.00;5091134;28;20482;-77
2021/12/09 09:18:25;;;;;;;92.90;38.20;;;;;;;-0.37;100.00;60764.31;5091877;28;20502;-77
2021/12/09 09:20:53;;;;;;;79.00;34.83;;;;;;;-0.04;100.00;60801.78;5091966;28;20473;-78
2021/12/09 09:23:24;;;;;;;74.30;33.57;;;;;;;1.21;100.00;60928.72;5091929;28;20534;-76
2021/12/09 09:25:55;;;;;;;73.67;32.57;;;;;;;1.46;100.00;60960.25;5091505;28;20430;-78
2021/12/09 09:28:26;;;;;;;84.23;35.17;;;;;;;0.62;100.00;60868.69;5091711;27;20442;-78
2021/12/09 09:30:56;;;;;;;80.47;34.73;;;;;;;1.53;100.00;60972.19;5091149;28;20475;-77
2021/12/09 09:33:28;;;;;;;87.00;36.43;;;;;;;-0.20;100.00;60785.34;5091146;28;20850;-77
2021/12/09 09:35:56;;;;;;;79.83;33.40;;;;;;;0.10;100.00;60816.59;5091217;28;20522;-75
2021/12/09 09:38:25;;;;;;;83.80;35.07;;;;;;;0.06;100.00;60814.88;5091386;28;20451;-76
2021/12/09 09:41:03;;;;;;;76.77;33.50;;;;;;;1.42;100.00;60955.50;5091077;28;20481;-76
2021/12/09 09:43:42;;;;;;;78.40;33.67;;;;;;;0.77;100.00;60887.59;5091239;28;20433;-78
2021/12/09 09:46:11;;;;;;;89.47;36.40;;;;;;;1.60;100.00;60974.59;5090238;28;20963;-76
2021/12/09 09:48:42;;;;;;;97.37;39.37;;;;;;;1.37;100.00;60945.19;5091137;28;20446;-77
2021/12/09 09:51:10;;;;;;;83.27;33.20;;;;;;;1.36;100.00;60949.66;5091628;28;20418;-76
2021/12/09 09:53:41;;;;;;;78.60;33.80;;;;;;;0.96;100.00;60912.25;5091142;28;20437;-77
2021/12/09 09:56:16;;;;;;;73.97;34.77;;;;;;;1.56;100.00;60965.84;5091173;28;20430;-77
2021/12/09 09:58:46;;;;;;;76.80;34.63;;;;;;;1.73;100.00;60985.34;5091072;27;20456;-75
2021/12/09 10:01:14;;;;;;;80.53;32.60;;;;;;;2.03;100.00;61020.25;5090704;28;20493;-75
2021/12/09 10:03:48;;;;;;;74.17;31.57;;;;;;;2.20;100.00;61037.75;5090953;28;20537;-76
2021/12/09 10:06:18;;;;;;;66.23;29.37;;;;;;;2.23;100.00;61040.94;5090997;28;20495;-76
2021/12/09 10:08:45;;;;;;;53.03;27.57;;;;;;;2.37;100.00;61055.81;5092508;28;20510;-79
2021/12/09 10:11:13;;;;;;;57.53;26.73;;;;;;;1.97;100.00;61016.38;5098051;28;20506;-78
2021/12/09 10:13:44;;;;;;;55.13;25.57;;;;;;;2.49;100.00;61063.53;5095834;28;20441;-76
2021/12/09 10:16:25;;;;;;;63.33;27.50;;;;;;;2.24;100.00;61042.00;5093405;28;20470;-76
2021/12/09 10:18:56;;;;;;;59.20;28.13;;;;;;;2.12;100.00;61029.78;5095208;28;20445;-77
2021/12/09 10:21:26;;;;;;;61.10;28.83;;;;;;;2.40;100.00;61058.97;5094748;28;20556;-77
2021/12/09 10:24:00;;;;;;;81.83;34.33;;;;;;;1.76;100.00;60991.56;5094730;28;20450;-77
2021/12/09 10:26:30;;;;;;;76.47;33.37;;;;;;;2.36;100.00;61055.28;5094909;28;20494;-78
2021/12/09 10:29:06;;;;;;;147.67;55.40;;;;;;;1.82;100.00;60992.91;5094475;28;20507;-78
2021/12/09 10:34:33;;;;;;;75.10;38.67;;;;;;;3.13;100.00;61136.03;5094674;28;20481;-76
2021/12/09 10:37:16;;;;;;;73.90;35.93;;;;;;;3.28;100.00;61151.97;5093588;28;20502;-76
2021/12/09 10:39:50;;;;;;;66.43;32.83;;;;;;;3.34;100.00;61155.84;5094719;28;20444;-76
2021/12/09 10:42:24;;;;;;;69.90;33.57;;;;;;;3.48;100.00;61168.22;5094516;28;20441;-78
2021/12/09 10:44:55;;;;;;;74.53;33.20;;;;;;;3.61;100.00;61189.56;5094846;28;20463;-76
2021/12/09 10:47:35;;;;;;;72.30;33.13;;;;;;;3.65;100.00;61186.28;5094341;28;20931;-76
2021/12/09 10:50:16;;;;;;;74.70;33.43;;;;;;;4.22;100.00;61254.47;5094682;28;20448;-76
2021/12/09 10:52:50;;;;;;;67.80;30.87;;;;;;;4.24;100.00;61254.09;5095103;28;20433;-77
2021/12/09 10:55:24;;;;;;;74.07;32.93;;;;;;;4.55;100.00;61286.03;5094569;28;20446;-77
2021/12/09 10:58:04;;;;;;;74.00;34.37;;;;;;;4.85;100.00;61323.53;5094375;28;20449;-79
2021/12/09 11:00:38;;;;;;;78.83;37.73;;;;;;;5.03;100.00;61337.13;5094149;28;21046;-78
2021/12/09 11:03:21;;;;;;;75.40;36.73;;;;;;;5.66;100.00;61399.19;5094320;28;20426;-77
2021/12/09 11:05:55;;;;;;;74.30;36.37;;;;;;;5.03;100.00;61339.66;5094403;28;20562;-77
2021/12/09 11:08:44;;;;;;;75.33;36.87;;;;;;;5.52;100.00;61388.78;5094162;28;20517;-75
2021/12/09 11:11:13;;;;;;;70.33;35.97;;;;;;;4.91;100.00;61326.88;5089603;28;20450;-75
2021/12/09 11:13:49;;;;;;;74.20;35.03;;;;;;;4.62;100.00;61291.47;5093588;28;20928;-76
2021/12/09 11:16:23;;;;;;;74.87;34.93;;;;;;;4.09;100.00;61238.13;5094312;28;20479;-76
2021/12/09 11:18:51;;;;;;;75.27;36.47;;;;;;;3.18;100.00;61146.38;5093571;28;20958;-77
2021/12/09 11:21:28;;;;;;;76.90;38.40;;;;;;;3.30;100.00;61151.59;5093908;28;20602;-76
2021/12/09 11:24:01;;;;;;;83.07;38.87;;;;;;;3.28;100.00;61154.50;5093423;28;20461;-75
2021/12/09 11:26:38;;;;;;;88.00;39.73;;;;;;;2.58;100.00;61080.63;5093357;28;20450;-77
2021/12/09 11:29:09;;;;;;;97.73;43.47;;;;;;;2.88;100.00;61109.47;5093360;28;20449;-78
2021/12/09 11:31:42;;;;;;;95.50;39.47;;;;;;;2.77;100.00;61098.31;5093387;28;21069;-77
2021/12/09 11:34:17;;;;;;;98.13;39.93;;;;;;;2.47;100.00;61069.47;5093534;28;20434;-75